createdAt,value
2022-10-14T00:01:16.616Z,90.82
2022-10-14T00:03:44.850Z,90.72
2022-10-14T00:06:14.503Z,90.36
2022-10-14T00:08:42.850Z,90.31
2022-10-14T00:11:16.523Z,90.38
2022-10-14T00:13:44.322Z,90.48
2022-10-14T00:16:19.429Z,90.56
2022-10-14T00:18:47.982Z,90.53
2022-10-14T00:21:16.607Z,90.27
2022-10-14T00:23:44.647Z,90.37
2022-10-14T00:26:17.299Z,90.47
2022-10-14T00:28:45.387Z,90.41
2022-10-14T00:31:13.407Z,90.35
2022-10-14T00:33:44.068Z,90.73
2022-10-14T00:36:13.143Z,90.76
2022-10-14T00:38:41.023Z,90.86
2022-10-14T00:41:11.930Z,90.86
2022-10-14T00:43:57.036Z,91.11
2022-10-14T00:46:25.779Z,91.25
2022-10-14T00:49:06.508Z,91.15
2022-10-14T00:51:35.409Z,91.34
2022-10-14T00:54:03.528Z,91.23
2022-10-14T00:56:31.920Z,91.11
2022-10-14T00:59:01.028Z,91.02
2022-10-14T01:01:28.735Z,91.39
2022-10-14T01:03:56.616Z,91.14
2022-10-14T01:06:40.017Z,91.35
2022-10-14T01:09:20.384Z,91.33
2022-10-14T01:12:23.476Z,91.18
2022-10-14T01:14:52.377Z,91.28
2022-10-14T01:17:30.990Z,91.08
2022-10-14T01:20:31.250Z,91.07
2022-10-14T01:23:25.416Z,91.07
2022-10-14T01:25:58.785Z,90.91
2022-10-14T01:28:33.985Z,90.88
2022-10-14T01:31:06.000Z,91.00
2022-10-14T01:33:36.883Z,91.07
2022-10-14T01:36:09.360Z,91.14
2022-10-14T01:38:39.926Z,91.15
2022-10-14T01:41:15.668Z,91.34
2022-10-14T01:43:46.545Z,91.22
2022-10-14T01:46:20.677Z,90.97
2022-10-14T01:48:52.263Z,91.11
2022-10-14T01:51:24.238Z,90.93
2022-10-14T01:53:57.814Z,91.00
2022-10-14T01:56:28.451Z,90.79
2022-10-14T01:58:57.355Z,90.43
2022-10-14T02:01:27.098Z,90.28
2022-10-14T02:03:55.217Z,90.18
2022-10-14T02:06:28.908Z,90.26
2022-10-14T02:09:08.564Z,90.12
2022-10-14T02:11:45.706Z,90.13
2022-10-14T02:14:29.052Z,90.27
2022-10-14T02:17:03.612Z,90.06
2022-10-14T02:19:38.688Z,90.22
2022-10-14T02:22:11.030Z,89.92
2022-10-14T02:24:42.868Z,89.92
2022-10-14T02:27:13.678Z,89.32
2022-10-14T02:29:43.540Z,89.04
2022-10-14T02:32:15.074Z,89.19
2022-10-14T02:34:47.912Z,88.85
2022-10-14T02:37:17.795Z,88.81
2022-10-14T02:39:53.121Z,88.43
2022-10-14T02:42:21.052Z,88.14
2022-10-14T02:44:56.390Z,88.13
2022-10-14T02:47:25.858Z,88.55
2022-10-14T02:49:54.190Z,88.28
2022-10-14T02:52:22.428Z,87.92
2022-10-14T02:54:50.479Z,88.02
2022-10-14T02:57:18.329Z,87.71
2022-10-14T02:59:46.121Z,87.60
2022-10-14T03:02:16.332Z,87.94
2022-10-14T03:04:45.525Z,87.86
2022-10-14T03:07:13.358Z,87.71
2022-10-14T03:09:46.058Z,87.73
2022-10-14T03:12:13.995Z,87.70
2022-10-14T03:14:41.790Z,87.77
2022-10-14T03:17:12.699Z,87.72
2022-10-14T03:19:41.107Z,87.95
2022-10-14T03:22:10.803Z,88.00
2022-10-14T03:24:39.999Z,87.61
2022-10-14T03:27:26.328Z,87.63
2022-10-14T03:29:59.694Z,87.91
2022-10-14T03:32:27.516Z,87.97
2022-10-14T03:35:13.314Z,87.39
2022-10-14T03:37:45.261Z,87.26
2022-10-14T03:40:14.842Z,87.24
2022-10-14T03:42:42.747Z,87.60
2022-10-14T03:45:11.667Z,87.41
2022-10-14T03:47:41.108Z,87.21
2022-10-14T03:50:09.307Z,87.40
2022-10-14T03:52:46.578Z,87.86
2022-10-14T03:55:24.956Z,87.76
2022-10-14T03:57:53.534Z,87.71
2022-10-14T04:00:21.729Z,87.77
2022-10-14T04:02:59.230Z,87.69
2022-10-14T04:05:37.751Z,87.33
2022-10-14T04:08:11.541Z,87.28
2022-10-14T04:10:44.497Z,87.12
2022-10-14T04:13:15.496Z,87.22
2022-10-14T04:15:43.250Z,87.22
2022-10-14T04:18:34.058Z,87.36
2022-10-14T04:21:06.710Z,87.16
2022-10-14T04:23:35.553Z,87.33
2022-10-14T04:26:13.272Z,87.27
2022-10-14T04:28:41.460Z,87.56
2022-10-14T04:31:14.859Z,87.53
2022-10-14T04:33:55.242Z,87.62
2022-10-14T04:36:30.069Z,87.74
2022-10-14T04:39:00.131Z,87.89
2022-10-14T04:41:29.387Z,88.28
2022-10-14T04:43:59.698Z,88.05
2022-10-14T04:46:35.777Z,87.75
2022-10-14T04:49:04.038Z,88.01
2022-10-14T04:51:37.896Z,87.82
2022-10-14T04:54:34.676Z,88.10
2022-10-14T04:57:04.721Z,87.87
2022-10-14T04:59:32.355Z,87.37
2022-10-14T05:02:05.734Z,87.59
2022-10-14T05:04:44.731Z,87.52
2022-10-14T05:07:12.887Z,87.89
2022-10-14T05:09:44.075Z,87.44
2022-10-14T05:12:38.451Z,87.94
2022-10-14T05:15:07.636Z,88.14
2022-10-14T05:17:44.559Z,88.05
2022-10-14T05:20:16.109Z,87.94
2022-10-14T05:22:47.386Z,87.87
2022-10-14T05:25:15.325Z,87.97
2022-10-14T05:27:45.668Z,87.60
2022-10-14T05:30:14.566Z,88.12
2022-10-14T05:32:47.082Z,88.34
2022-10-14T05:35:15.069Z,88.53
2022-10-14T05:37:42.863Z,89.08
2022-10-14T05:40:11.601Z,89.45
2022-10-14T05:42:39.668Z,89.52
2022-10-14T05:45:09.660Z,89.72
2022-10-14T05:47:44.496Z,90.03
2022-10-14T05:50:16.921Z,89.81
2022-10-14T05:52:46.569Z,89.83
2022-10-14T05:55:28.043Z,90.11
2022-10-14T05:57:59.437Z,90.26
2022-10-14T06:00:34.785Z,90.20
2022-10-14T06:03:08.692Z,89.99
2022-10-14T06:05:38.328Z,90.20
2022-10-14T06:08:06.753Z,90.23
2022-10-14T06:10:37.498Z,90.18
2022-10-14T06:13:05.541Z,90.04
2022-10-14T06:15:37.439Z,90.10
2022-10-14T06:18:06.134Z,90.05
2022-10-14T06:20:34.556Z,90.03
2022-10-14T06:23:03.202Z,90.08
2022-10-14T06:25:31.378Z,89.98
2022-10-14T06:28:03.077Z,89.85
2022-10-14T06:30:30.798Z,89.98
2022-10-14T06:32:59.944Z,89.63
2022-10-14T06:35:27.816Z,89.79
2022-10-14T06:37:55.746Z,89.57
2022-10-14T06:40:23.529Z,90.10
2022-10-14T06:42:52.200Z,90.00
2022-10-14T06:45:20.922Z,89.95
2022-10-14T06:47:48.666Z,90.20
2022-10-14T06:50:17.850Z,89.91
2022-10-14T06:52:46.076Z,89.74
2022-10-14T06:55:13.965Z,89.53
2022-10-14T06:57:41.831Z,89.37
2022-10-14T07:00:10.948Z,89.52
2022-10-14T07:02:39.178Z,89.01
2022-10-14T07:05:07.603Z,89.05
2022-10-14T07:07:36.703Z,88.52
2022-10-14T07:10:04.769Z,88.10
2022-10-14T07:12:32.525Z,87.50
2022-10-14T07:15:00.340Z,87.04
2022-10-14T07:17:28.048Z,86.86
2022-10-14T07:19:55.849Z,86.84
2022-10-14T07:22:23.928Z,86.76
2022-10-14T07:24:53.406Z,86.50
2022-10-14T07:27:21.528Z,86.66
2022-10-14T07:29:49.436Z,86.54
2022-10-14T07:32:17.212Z,86.45
2022-10-14T07:34:45.164Z,86.58
2022-10-14T07:37:12.887Z,86.23
2022-10-14T07:39:40.637Z,86.10
2022-10-14T07:42:09.810Z,85.78
2022-10-14T07:44:39.646Z,85.52
2022-10-14T07:47:07.659Z,85.33
2022-10-14T07:49:36.169Z,85.05
2022-10-14T07:52:04.116Z,85.16
2022-10-14T07:54:32.576Z,84.85
2022-10-14T07:57:00.347Z,84.98
2022-10-14T07:59:29.496Z,85.06
2022-10-14T08:01:57.289Z,85.32
2022-10-14T08:04:26.001Z,85.27
2022-10-14T08:06:54.020Z,85.74
2022-10-14T08:09:22.570Z,85.11
2022-10-14T08:11:50.495Z,85.53
2022-10-14T08:14:18.266Z,85.26
2022-10-14T08:16:47.901Z,85.93
2022-10-14T08:19:15.734Z,85.66
2022-10-14T08:21:44.454Z,85.40
2022-10-14T08:24:12.749Z,85.44
2022-10-14T08:26:41.823Z,85.38
2022-10-14T08:29:12.405Z,85.96
2022-10-14T08:31:40.254Z,85.28
2022-10-14T08:34:11.066Z,84.94
2022-10-14T08:36:39.016Z,85.06
2022-10-14T08:39:07.647Z,84.80
2022-10-14T08:41:52.766Z,84.51
2022-10-14T08:44:24.221Z,84.56
2022-10-14T08:46:55.467Z,84.84
2022-10-14T08:49:29.362Z,84.91
2022-10-14T08:52:01.208Z,84.93
2022-10-14T08:54:36.300Z,84.89
2022-10-14T08:57:05.736Z,84.53
2022-10-14T08:59:38.499Z,85.02
2022-10-14T09:02:19.903Z,84.99
2022-10-14T09:04:49.420Z,85.37
2022-10-14T09:07:19.938Z,85.30
2022-10-14T09:09:49.910Z,85.45
2022-10-14T09:12:20.443Z,85.12
2022-10-14T09:14:50.238Z,85.05
2022-10-14T09:17:25.878Z,84.90
2022-10-14T09:20:05.159Z,84.81
2022-10-14T09:22:32.970Z,84.78
2022-10-14T09:25:01.165Z,83.72
2022-10-14T09:27:30.340Z,84.13
2022-10-14T09:30:00.126Z,84.20
2022-10-14T09:32:32.408Z,84.18
2022-10-14T09:35:02.539Z,84.09
2022-10-14T09:37:31.662Z,83.85
2022-10-14T09:40:02.763Z,83.78
2022-10-14T09:42:43.350Z,83.87
2022-10-14T09:45:13.551Z,83.18
2022-10-14T09:47:47.242Z,83.36
2022-10-14T09:50:26.770Z,82.94
2022-10-14T09:52:58.792Z,82.89
2022-10-14T09:55:26.876Z,82.64
2022-10-14T09:58:05.377Z,82.89
2022-10-14T10:00:35.420Z,83.61
2022-10-14T10:03:03.263Z,84.43
2022-10-14T10:05:34.210Z,84.14
2022-10-14T10:08:05.464Z,84.38
2022-10-14T10:10:35.101Z,84.45
2022-10-14T10:13:03.617Z,84.54
2022-10-14T10:15:31.476Z,85.07
2022-10-14T10:17:59.224Z,84.42
2022-10-14T10:20:33.415Z,84.58
2022-10-14T10:23:24.972Z,84.39
2022-10-14T10:25:53.338Z,84.38
2022-10-14T10:28:31.666Z,85.47
2022-10-14T10:31:12.425Z,85.20
2022-10-14T10:33:48.573Z,84.61
2022-10-14T10:36:22.221Z,84.99
2022-10-14T10:38:59.793Z,84.64
2022-10-14T10:41:53.278Z,84.38
2022-10-14T10:44:45.582Z,83.22
2022-10-14T10:47:31.461Z,83.11
2022-10-14T10:50:26.771Z,82.49
2022-10-14T10:53:07.013Z,82.32
2022-10-14T10:55:45.044Z,82.69
2022-10-14T10:58:27.686Z,82.41
2022-10-14T11:01:02.232Z,82.58
2022-10-14T11:03:39.284Z,82.80
2022-10-14T11:06:13.893Z,82.60
2022-10-14T11:09:17.224Z,82.58
2022-10-14T11:12:07.810Z,82.92
2022-10-14T11:14:50.559Z,83.48
2022-10-14T11:17:27.730Z,82.76
2022-10-14T11:20:05.426Z,82.61
2022-10-14T11:22:52.206Z,82.59
2022-10-14T11:25:30.305Z,82.42
2022-10-14T11:28:06.037Z,83.46
2022-10-14T11:30:43.998Z,83.07
2022-10-14T11:33:29.361Z,83.07
2022-10-14T11:36:09.622Z,83.52
2022-10-14T11:38:52.360Z,83.66
2022-10-14T11:41:32.125Z,84.04
2022-10-14T11:44:08.833Z,84.02
2022-10-14T11:46:40.146Z,84.23
2022-10-14T11:49:14.948Z,84.84
2022-10-14T11:51:48.508Z,84.81
2022-10-14T11:54:19.921Z,85.30
2022-10-14T11:56:52.131Z,85.35
2022-10-14T11:59:36.617Z,85.72
2022-10-14T12:02:18.937Z,86.01
2022-10-14T12:04:54.338Z,86.16
2022-10-14T12:07:28.015Z,86.51
2022-10-14T12:10:01.015Z,86.04
2022-10-14T12:12:31.158Z,86.10
2022-10-14T12:15:02.717Z,85.92
2022-10-14T12:17:35.214Z,85.57
2022-10-14T12:20:09.523Z,85.41
2022-10-14T12:22:38.808Z,85.16
2022-10-14T12:25:12.099Z,85.23
2022-10-14T12:27:40.230Z,85.30
2022-10-14T12:30:32.864Z,85.11
2022-10-14T12:33:02.509Z,85.18
2022-10-14T12:35:50.463Z,86.03
2022-10-14T12:38:20.298Z,85.87
2022-10-14T12:40:49.249Z,85.67
2022-10-14T12:43:24.281Z,86.40
2022-10-14T12:46:12.778Z,86.94
2022-10-14T12:48:50.281Z,87.19
2022-10-14T12:51:22.117Z,87.43
2022-10-14T12:53:57.604Z,86.99
2022-10-14T12:56:31.506Z,86.81
2022-10-14T12:59:02.330Z,86.33
2022-10-14T13:01:35.314Z,86.02
2022-10-14T13:04:08.079Z,85.82
2022-10-14T13:06:41.031Z,85.80
2022-10-14T13:09:33.511Z,85.94
2022-10-14T13:12:43.832Z,85.82
2022-10-14T13:15:53.357Z,85.65
2022-10-14T13:18:38.216Z,85.92
2022-10-14T13:21:08.160Z,85.98
2022-10-14T13:23:42.738Z,85.98
2022-10-14T13:26:21.013Z,85.59
2022-10-14T13:28:57.652Z,85.25
2022-10-14T13:31:30.742Z,85.01
2022-10-14T13:34:13.824Z,83.70
2022-10-14T13:36:58.456Z,83.27
2022-10-14T13:39:26.360Z,83.56
2022-10-14T13:41:58.212Z,83.18
2022-10-14T13:44:26.821Z,82.60
2022-10-14T13:46:55.216Z,82.04
2022-10-14T13:49:28.910Z,82.33
2022-10-14T13:52:00.220Z,82.62
2022-10-14T13:54:30.646Z,82.62
2022-10-14T13:57:47.788Z,82.12
2022-10-14T14:00:38.091Z,83.25
2022-10-14T14:02:46.271Z,83.33
2022-10-14T14:05:22.302Z,82.86
2022-10-14T14:10:57.482Z,81.95
2022-10-14T14:13:29.055Z,80.50
2022-10-14T14:15:57.586Z,80.56
2022-10-14T14:18:48.885Z,79.91
2022-10-14T14:21:27.176Z,79.71
2022-10-14T14:23:56.850Z,80.87
2022-10-14T14:26:28.708Z,80.74
2022-10-14T14:28:56.528Z,81.05
2022-10-14T14:31:33.635Z,80.72
2022-10-14T14:34:05.964Z,80.79
2022-10-14T14:36:50.856Z,81.21
2022-10-14T14:39:24.242Z,81.27
2022-10-14T14:41:53.151Z,80.98
2022-10-14T14:44:26.382Z,81.35
2022-10-14T14:46:58.304Z,81.26
2022-10-14T14:49:29.513Z,81.15
2022-10-14T14:52:01.803Z,81.46
2022-10-14T14:54:29.975Z,81.12
2022-10-14T14:57:04.577Z,80.93
2022-10-14T14:59:36.478Z,81.32
2022-10-14T15:02:11.750Z,81.08
2022-10-14T15:04:39.651Z,81.38
2022-10-14T15:07:17.472Z,81.44
2022-10-14T15:09:51.051Z,80.89
2022-10-14T15:12:22.166Z,81.18
2022-10-14T15:14:51.530Z,81.04
2022-10-14T15:17:26.203Z,80.68
2022-10-14T15:19:57.079Z,80.96
2022-10-14T15:22:36.205Z,81.06
2022-10-14T15:25:12.693Z,81.09
2022-10-14T15:27:48.486Z,80.96
2022-10-14T15:30:27.177Z,81.03
2022-10-14T15:32:58.435Z,81.03
2022-10-14T15:35:26.849Z,81.23
2022-10-14T15:37:56.335Z,81.08
2022-10-14T15:40:27.595Z,81.12
2022-10-14T15:42:55.863Z,80.90
2022-10-14T15:45:24.455Z,81.15
2022-10-14T15:50:29.995Z,81.20
2022-10-14T15:52:59.148Z,81.20
2022-10-14T15:55:29.747Z,81.05
2022-10-14T15:57:57.475Z,81.18
2022-10-14T16:00:26.010Z,81.20
2022-10-14T16:02:58.360Z,80.67
2022-10-14T16:05:26.884Z,81.21
2022-10-14T16:07:54.643Z,81.63
2022-10-14T16:10:24.908Z,81.48
2022-10-14T16:12:52.873Z,81.28
2022-10-14T16:15:35.660Z,81.45
2022-10-14T16:18:03.423Z,81.41
2022-10-14T16:20:31.760Z,81.26
2022-10-14T16:23:04.208Z,81.47
2022-10-14T16:25:38.616Z,81.59
2022-10-14T16:28:09.958Z,81.70
2022-10-14T16:30:40.137Z,82.07
2022-10-14T16:33:08.623Z,82.46
2022-10-14T16:35:36.450Z,82.60
2022-10-14T16:38:04.464Z,82.47
2022-10-14T16:40:36.693Z,82.20
2022-10-14T16:43:06.644Z,82.44
2022-10-14T16:45:34.473Z,82.82
2022-10-14T16:48:02.286Z,83.20
2022-10-14T16:50:30.195Z,83.46
2022-10-14T16:53:15.504Z,83.09
2022-10-14T16:55:44.629Z,82.87
2022-10-14T16:58:12.396Z,83.22
2022-10-14T17:00:40.551Z,83.50
2022-10-14T17:03:10.602Z,83.58
2022-10-14T17:05:38.382Z,83.49
2022-10-14T17:08:08.200Z,83.56
2022-10-14T17:10:35.974Z,83.85
2022-10-14T17:13:05.093Z,83.68
2022-10-14T17:15:37.229Z,83.77
2022-10-14T17:18:05.078Z,83.88
2022-10-14T17:20:32.835Z,84.14
2022-10-14T17:23:00.866Z,84.35
2022-10-14T17:25:28.655Z,84.36
2022-10-14T17:27:56.543Z,84.24
2022-10-14T17:30:25.880Z,84.09
2022-10-14T17:32:53.687Z,83.70
2022-10-14T17:35:23.510Z,83.85
2022-10-14T17:37:52.104Z,84.26
2022-10-14T17:40:19.971Z,84.24
2022-10-14T17:42:47.917Z,83.97
2022-10-14T17:45:15.800Z,83.82
2022-10-14T17:47:44.891Z,83.53
2022-10-14T17:50:13.068Z,83.59
2022-10-14T17:52:40.861Z,83.68
2022-10-14T17:55:09.650Z,83.55
2022-10-14T17:57:37.997Z,83.28
2022-10-14T18:00:06.703Z,83.50
2022-10-14T18:02:39.751Z,83.78
2022-10-14T18:05:09.764Z,83.64
2022-10-14T18:07:38.230Z,83.83
2022-10-14T18:10:07.156Z,84.04
2022-10-14T18:12:34.923Z,84.27
2022-10-14T18:15:02.764Z,84.46
2022-10-14T18:17:30.612Z,84.07
2022-10-14T18:20:04.058Z,83.83
2022-10-14T18:22:33.881Z,84.19
2022-10-14T18:25:01.978Z,84.57
2022-10-14T18:27:29.826Z,84.67
2022-10-14T18:29:57.638Z,84.35
2022-10-14T18:32:25.687Z,83.67
2022-10-14T18:34:53.633Z,83.62
2022-10-14T18:37:21.372Z,83.94
2022-10-14T18:39:50.543Z,84.19
2022-10-14T18:42:20.781Z,84.07
2022-10-14T18:44:49.038Z,84.14
2022-10-14T18:47:16.847Z,84.22
2022-10-14T18:49:44.631Z,84.41
2022-10-14T18:52:12.390Z,84.78
2022-10-14T18:54:40.365Z,84.62
2022-10-14T18:57:14.724Z,84.53
2022-10-14T18:59:42.544Z,84.73
2022-10-14T19:02:13.199Z,84.83
2022-10-14T19:04:40.947Z,84.74
2022-10-14T19:07:08.795Z,84.71
2022-10-14T19:09:36.844Z,84.52
2022-10-14T19:12:25.723Z,84.77
2022-10-14T19:14:55.051Z,84.99
2022-10-14T19:17:22.694Z,84.93
2022-10-14T19:19:50.739Z,85.27
2022-10-14T19:22:18.639Z,85.47
2022-10-14T19:24:46.459Z,85.67
2022-10-14T19:27:14.277Z,85.99
2022-10-14T19:29:42.099Z,85.76
2022-10-14T19:32:11.322Z,85.60
2022-10-14T19:34:40.811Z,85.55
2022-10-14T19:37:11.451Z,86.04
2022-10-14T19:39:40.679Z,86.25
2022-10-14T19:42:08.352Z,85.81
2022-10-14T19:44:36.208Z,86.14
2022-10-14T19:47:04.069Z,86.25
2022-10-14T19:49:33.227Z,86.54
2022-10-14T19:52:01.014Z,86.53
2022-10-14T19:54:29.003Z,86.32
2022-10-14T19:56:56.838Z,85.74
2022-10-14T19:59:24.601Z,85.87
2022-10-14T20:01:52.448Z,85.75
2022-10-14T20:04:22.789Z,85.55
2022-10-14T20:06:54.358Z,85.50
2022-10-14T20:09:25.022Z,85.45
2022-10-14T20:11:53.041Z,85.97
2022-10-14T20:14:20.825Z,86.10
2022-10-14T20:16:52.303Z,86.48
2022-10-14T20:19:22.960Z,86.23
2022-10-14T20:21:50.769Z,86.03
2022-10-14T20:24:19.881Z,85.81
2022-10-14T20:26:47.740Z,86.08
2022-10-14T20:29:15.678Z,86.21
2022-10-14T20:31:43.482Z,86.74
2022-10-14T20:34:11.466Z,87.09
2022-10-14T20:36:39.308Z,87.22
2022-10-14T20:39:07.114Z,87.32
2022-10-14T20:41:36.341Z,86.86
2022-10-14T20:44:03.972Z,86.37
2022-10-14T20:46:31.808Z,86.36
2022-10-14T20:48:59.582Z,86.09
2022-10-14T20:51:27.877Z,85.67
2022-10-14T20:54:01.700Z,85.36
2022-10-14T20:56:33.563Z,85.23
2022-10-14T20:59:05.412Z,85.04
2022-10-14T21:01:35.020Z,85.42
2022-10-14T21:04:04.169Z,85.30
2022-10-14T21:06:32.239Z,85.26
2022-10-14T21:09:00.568Z,85.09
2022-10-14T21:11:28.826Z,85.21
2022-10-14T21:13:59.196Z,85.50
2022-10-14T21:16:30.254Z,85.62
2022-10-14T21:19:00.099Z,85.39
2022-10-14T21:21:29.473Z,85.48
2022-10-14T21:23:57.776Z,85.48
2022-10-14T21:26:25.704Z,85.52
2022-10-14T21:28:54.053Z,85.52
2022-10-14T21:31:22.808Z,85.88
2022-10-14T21:34:02.529Z,86.22
2022-10-14T21:36:32.730Z,86.16
2022-10-14T21:39:01.871Z,85.91
2022-10-14T21:41:29.842Z,85.98
2022-10-14T21:43:59.285Z,86.00
2022-10-14T21:46:28.017Z,86.20
2022-10-14T21:48:58.402Z,86.39
2022-10-14T21:51:27.905Z,86.47
2022-10-14T21:53:56.237Z,86.50
2022-10-14T21:56:24.714Z,86.44
2022-10-14T21:58:52.588Z,86.47
2022-10-14T22:01:23.225Z,86.18
2022-10-14T22:03:54.747Z,86.18
2022-10-14T22:06:24.073Z,86.12
2022-10-14T22:08:53.112Z,86.30
2022-10-14T22:11:22.788Z,86.33
2022-10-14T22:13:51.947Z,86.57
2022-10-14T22:16:20.157Z,86.89
2022-10-14T22:18:50.565Z,87.06
2022-10-14T22:21:19.943Z,87.32
2022-10-14T22:23:49.979Z,87.04
2022-10-14T22:26:19.633Z,87.28
2022-10-14T22:28:47.907Z,87.24
2022-10-14T22:31:18.787Z,87.43
2022-10-14T22:33:47.008Z,87.65
2022-10-14T22:36:19.518Z,87.32
2022-10-14T22:38:54.943Z,87.43
2022-10-14T22:41:24.160Z,87.49
2022-10-14T22:43:52.899Z,87.55
2022-10-14T22:46:25.334Z,87.71
2022-10-14T22:48:56.144Z,87.93
2022-10-14T22:54:00.093Z,87.65
2022-10-14T22:56:29.248Z,87.56
2022-10-14T22:58:58.491Z,87.55
2022-10-14T23:01:27.765Z,87.65
2022-10-14T23:03:57.216Z,87.83
2022-10-14T23:06:24.946Z,87.94
2022-10-14T23:08:52.786Z,87.78
2022-10-14T23:11:23.727Z,87.48
2022-10-14T23:13:51.921Z,87.50
2022-10-14T23:16:21.554Z,87.27
2022-10-14T23:18:50.082Z,87.32
2022-10-14T23:21:20.320Z,87.00
2022-10-14T23:23:49.663Z,87.20
2022-10-14T23:26:20.271Z,87.16
2022-10-14T23:28:51.330Z,87.45
2022-10-14T23:31:21.508Z,87.43
2022-10-14T23:33:51.466Z,87.23
2022-10-14T23:36:20.676Z,87.11
2022-10-14T23:38:48.504Z,86.95
2022-10-14T23:41:16.554Z,87.18
2022-10-14T23:43:44.508Z,87.34
2022-10-14T23:46:13.681Z,87.38
2022-10-14T23:48:41.567Z,87.73
2022-10-14T23:51:09.436Z,87.89
2022-10-14T23:53:37.304Z,87.89
2022-10-14T23:56:06.136Z,87.44
2022-10-14T23:58:34.603Z,87.43
